createdAt,value
2018-09-14T00:02:01.274Z,101673.59
2018-09-14T00:04:35.854Z,101674.89
2018-09-14T00:07:07.300Z,101673.38
2018-09-14T00:09:36.770Z,101674.86
2018-09-14T00:12:06.251Z,101674.44
2018-09-14T00:14:36.256Z,101678.02
2018-09-14T00:17:08.521Z,101678.16
2018-09-14T00:19:38.508Z,101670.45
2018-09-14T00:22:08.146Z,101673.69
2018-09-14T00:24:38.255Z,101674.03
2018-09-14T00:27:07.586Z,101675.07
2018-09-14T00:29:37.309Z,101674.08
2018-09-14T00:32:07.792Z,101666.52
2018-09-14T00:34:37.629Z,101664.98
2018-09-14T00:37:08.770Z,101669.11
2018-09-14T00:39:40.260Z,101653.13
2018-09-14T00:42:12.544Z,101662.58
2018-09-14T00:53:14.081Z,101654.39
2018-09-14T00:55:43.972Z,101658.95
2018-09-14T00:58:13.820Z,101656.67
2018-09-14T01:00:46.945Z,101656.85
2018-09-14T01:03:18.498Z,101651.39
2018-09-14T01:05:47.817Z,101657.27
2018-09-14T01:08:17.215Z,101658.70
2018-09-14T01:10:46.503Z,101658.57
2018-09-14T01:13:16.451Z,101658.83
2018-09-14T01:15:46.677Z,101653.94
2018-09-14T01:18:17.144Z,101657.63
2018-09-14T01:20:46.668Z,101651.59
2018-09-14T01:23:16.019Z,101653.22
2018-09-14T01:25:46.993Z,101653.95
2018-09-14T01:28:16.673Z,101648.06
2018-09-14T01:30:46.471Z,101648.30
2018-09-14T01:33:15.980Z,101649.57
2018-09-14T01:35:50.425Z,101645.55
2018-09-14T01:38:19.866Z,101648.59
2018-09-14T01:40:49.301Z,101647.08
2018-09-14T01:43:19.005Z,101642.70
2018-09-14T01:45:50.994Z,101645.81
2018-09-14T01:48:20.471Z,101647.94
2018-09-14T01:50:49.964Z,101640.25
2018-09-14T01:53:19.530Z,101637.50
2018-09-14T01:55:49.361Z,101635.45
2018-09-14T01:58:19.300Z,101631.05
2018-09-14T02:00:49.110Z,101638.62
2018-09-14T02:03:18.763Z,101644.28
2018-09-14T02:05:49.123Z,101637.22
2018-09-14T02:08:18.602Z,101643.85
2018-09-14T02:10:52.844Z,101633.84
2018-09-14T02:13:23.420Z,101633.89
2018-09-14T02:15:53.091Z,101628.31
2018-09-14T02:18:22.577Z,101631.70
2018-09-14T02:20:51.867Z,101627.69
2018-09-14T02:23:21.697Z,101628.31
2018-09-14T02:25:56.687Z,101628.97
2018-09-14T02:28:31.315Z,101631.65
2018-09-14T02:31:01.263Z,101630.44
2018-09-14T02:33:30.913Z,101625.70
2018-09-14T02:36:00.469Z,101631.23
2018-09-14T02:38:29.998Z,101633.55
2018-09-14T02:40:59.576Z,101631.91
2018-09-14T02:43:29.317Z,101628.19
2018-09-14T02:45:59.110Z,101621.13
2018-09-14T02:48:28.822Z,101626.13
2018-09-14T02:50:58.193Z,101619.92
2018-09-14T02:53:27.757Z,101617.23
2018-09-14T02:55:57.379Z,101620.64
2018-09-14T02:58:28.631Z,101616.43
2018-09-14T03:00:59.627Z,101627.25
2018-09-14T03:03:29.729Z,101620.69
2018-09-14T03:06:00.694Z,101622.94
2018-09-14T03:08:30.625Z,101629.28
2018-09-14T03:11:00.292Z,101632.52
2018-09-14T03:13:30.565Z,101626.30
2018-09-14T03:16:00.305Z,101598.91
2018-09-14T03:18:29.885Z,101629.59
2018-09-14T03:20:59.733Z,101625.27
2018-09-14T03:23:30.319Z,101618.52
2018-09-14T03:25:59.791Z,101617.41
2018-09-14T03:28:29.467Z,101618.32
2018-09-14T03:33:34.673Z,101619.32
2018-09-14T03:36:07.930Z,101618.28
2018-09-14T03:38:37.602Z,101613.34
2018-09-14T03:41:07.005Z,101618.23
2018-09-14T03:43:36.705Z,101617.38
2018-09-14T03:46:06.444Z,101620.91
2018-09-14T03:48:35.901Z,101623.72
2018-09-14T03:51:05.747Z,101618.08
2018-09-14T03:53:36.054Z,101620.47
2018-09-14T03:56:05.993Z,101620.52
2018-09-14T03:58:35.681Z,101620.80
2018-09-14T04:01:07.736Z,101621.05
2018-09-14T04:03:37.314Z,101620.64
2018-09-14T04:06:07.228Z,101621.89
2018-09-14T04:08:36.742Z,101620.83
2018-09-14T04:11:06.439Z,101619.98
2018-09-14T04:13:36.402Z,101615.23
2018-09-14T04:16:06.145Z,101613.57
2018-09-14T04:18:36.227Z,101617.42
2018-09-14T04:21:06.641Z,101621.96
2018-09-14T04:23:36.102Z,101618.19
2018-09-14T04:26:05.633Z,101618.80
2018-09-14T04:28:36.916Z,101624.39
2018-09-14T04:31:06.590Z,101554.26
2018-09-14T04:33:37.659Z,101623.54
2018-09-14T04:36:07.428Z,101625.14
2018-09-14T04:38:36.756Z,101626.21
2018-09-14T04:41:06.391Z,101619.91
2018-09-14T04:43:36.908Z,101618.90
2018-09-14T04:46:06.821Z,101619.96
2018-09-14T04:48:37.635Z,101616.44
2018-09-14T04:51:07.626Z,101614.00
2018-09-14T04:53:37.530Z,101621.54
2018-09-14T04:56:09.915Z,101615.55
2018-09-14T04:58:40.208Z,101620.81
2018-09-14T05:01:10.296Z,101616.95
2018-09-14T05:03:39.828Z,101620.93
2018-09-14T05:06:10.332Z,101626.73
2018-09-14T05:08:39.900Z,101623.70
2018-09-14T05:11:09.425Z,101629.63
2018-09-14T05:13:40.661Z,101625.38
2018-09-14T05:16:15.574Z,101620.20
2018-09-14T05:18:45.132Z,101630.70
2018-09-14T05:21:15.142Z,101632.02
2018-09-14T05:23:44.540Z,101629.78
2018-09-14T05:26:15.394Z,101631.97
2018-09-14T05:28:45.265Z,101638.27
2018-09-14T05:31:15.845Z,101637.39
2018-09-14T05:33:46.397Z,101635.71
2018-09-14T05:36:18.490Z,101642.12
2018-09-14T05:38:50.276Z,101641.77
2018-09-14T05:41:20.911Z,101640.88
2018-09-14T05:43:53.213Z,101639.41
2018-09-14T05:46:23.876Z,101642.06
2018-09-14T05:48:55.227Z,101646.27
2018-09-14T05:51:25.879Z,101643.69
2018-09-14T05:53:56.216Z,101650.00
2018-09-14T05:59:03.769Z,101650.99
2018-09-14T06:01:35.329Z,101659.25
2018-09-14T06:04:06.744Z,101659.16
2018-09-14T06:06:37.015Z,101660.69
2018-09-14T06:09:11.248Z,101660.40
2018-09-14T06:11:46.216Z,101666.94
2018-09-14T06:14:16.686Z,101667.98
2018-09-14T06:16:46.352Z,101662.02
2018-09-14T06:19:16.828Z,101670.43
2018-09-14T06:21:49.284Z,101672.48
2018-09-14T06:24:20.103Z,101673.94
2018-09-14T06:26:49.551Z,101674.90
2018-09-14T06:29:26.275Z,101673.38
2018-09-14T06:31:56.116Z,101683.95
2018-09-14T06:34:25.830Z,101673.34
2018-09-14T06:36:56.188Z,101668.27
2018-09-14T06:39:26.567Z,101673.08
2018-09-14T06:41:56.534Z,101668.09
2018-09-14T06:44:26.128Z,101668.73
2018-09-14T06:46:57.234Z,101666.47
2018-09-14T06:49:28.692Z,101665.09
2018-09-14T06:52:17.432Z,101666.69
2018-09-14T06:54:47.350Z,101660.13
2018-09-14T06:57:17.063Z,101658.02
2018-09-14T06:59:47.863Z,101662.61
2018-09-14T07:02:20.451Z,101661.09
2018-09-14T07:04:55.966Z,101662.83
2018-09-14T07:07:26.823Z,101665.84
2018-09-14T07:10:12.862Z,101663.55
2018-09-14T07:12:43.592Z,101665.25
2018-09-14T07:15:19.597Z,101672.95
2018-09-14T07:18:00.083Z,101674.95
2018-09-14T07:20:30.336Z,101672.75
2018-09-14T07:23:00.666Z,101680.09
2018-09-14T07:25:30.459Z,101678.72
2018-09-14T07:28:01.495Z,101683.89
2018-09-14T07:30:41.219Z,101686.89
2018-09-14T07:33:11.475Z,101689.23
2018-09-14T07:35:45.340Z,101695.30
2018-09-14T07:38:15.382Z,101696.53
2018-09-14T07:40:51.319Z,101690.78
2018-09-14T07:43:23.285Z,101691.11
2018-09-14T07:45:52.873Z,101687.98
2018-09-14T07:48:22.423Z,101691.77
2018-09-14T07:50:53.847Z,101688.86
2018-09-14T07:56:23.073Z,101700.05
2018-09-14T07:59:22.689Z,101696.66
2018-09-14T08:05:27.289Z,101697.04
2018-09-14T08:07:57.869Z,101697.80
2018-09-14T08:10:30.068Z,101699.39
2018-09-14T08:13:22.548Z,101702.13
2018-09-14T08:16:01.881Z,101703.00
2018-09-14T08:18:39.991Z,101702.39
2018-09-14T08:21:13.430Z,101704.03
2018-09-14T08:23:48.770Z,101709.00
2018-09-14T08:26:32.440Z,101701.96
2018-09-14T08:29:09.052Z,101696.87
2018-09-14T08:31:40.624Z,101693.24
2018-09-14T08:34:12.068Z,101710.09
2018-09-14T08:36:45.786Z,101706.52
2018-09-14T08:39:16.371Z,101712.54
2018-09-14T08:41:46.709Z,101712.35
2018-09-14T08:44:18.418Z,101711.45
2018-09-14T08:46:47.948Z,101713.48
2018-09-14T08:49:19.145Z,101708.23
2018-09-14T08:51:51.215Z,101713.73
2018-09-14T08:54:22.096Z,101715.48
2018-09-14T08:56:51.636Z,101676.89
2018-09-14T08:59:27.787Z,101716.47
2018-09-14T09:01:58.255Z,101716.27
2018-09-14T09:04:30.560Z,101721.19
2018-09-14T09:07:01.413Z,101722.92
2018-09-14T09:09:31.697Z,101724.70
2018-09-14T09:12:02.611Z,101730.49
2018-09-14T09:14:32.680Z,101723.33
2018-09-14T09:19:46.676Z,101724.18
2018-09-14T09:22:17.686Z,101720.79
2018-09-14T09:24:48.933Z,101714.11
2018-09-14T09:27:21.212Z,101717.33
2018-09-14T09:29:52.545Z,101725.33
2018-09-14T09:32:27.653Z,101715.11
2018-09-14T09:34:56.978Z,101716.38
2018-09-14T09:40:41.325Z,101722.69
2018-09-14T09:46:09.522Z,101715.02
2018-09-14T09:48:39.946Z,101716.84
2018-09-14T09:51:09.736Z,101708.09
2018-09-14T09:53:40.274Z,101708.73
2018-09-14T09:56:12.981Z,101703.81
2018-09-14T09:58:43.336Z,101704.75
2018-09-14T10:01:18.112Z,101705.02
2018-09-14T10:03:55.136Z,101699.54
2018-09-14T10:06:28.527Z,101695.11
2018-09-14T10:08:59.017Z,101700.19
2018-09-14T10:11:29.933Z,101711.16
2018-09-14T10:14:01.653Z,101681.84
2018-09-14T10:16:35.336Z,101711.34
2018-09-14T10:19:05.944Z,101705.81
2018-09-14T10:21:36.215Z,101705.88
2018-09-14T10:24:10.906Z,101708.07
2018-09-14T10:26:42.003Z,101705.03
2018-09-14T10:29:12.061Z,101705.11
2018-09-14T10:31:42.275Z,101700.84
2018-09-14T10:34:13.964Z,101701.42
2018-09-14T10:36:43.876Z,101693.50
2018-09-14T10:39:17.131Z,101683.91
2018-09-14T10:41:50.233Z,101680.09
2018-09-14T10:44:20.043Z,101677.40
2018-09-14T10:46:51.695Z,101675.33
2018-09-14T10:49:24.201Z,101672.03
2018-09-14T10:51:54.255Z,101670.32
2018-09-14T10:54:25.278Z,101664.44
2018-09-14T10:58:01.744Z,101673.07
2018-09-14T11:00:41.975Z,101542.80
2018-09-14T11:03:11.722Z,101667.56
2018-09-14T11:05:46.036Z,101663.28
2018-09-14T11:08:17.573Z,101664.00
2018-09-14T11:10:47.648Z,101657.80
2018-09-14T11:13:21.323Z,101653.52
2018-09-14T11:15:52.918Z,101654.92
2018-09-14T11:18:25.954Z,101641.30
2018-09-14T11:21:01.134Z,101641.18
2018-09-14T11:23:31.447Z,101642.98
2018-09-14T11:26:02.343Z,101646.75
2018-09-14T11:28:33.589Z,101637.95
2018-09-14T11:31:09.321Z,101637.69
2018-09-14T11:33:40.467Z,101631.56
2018-09-14T11:36:13.106Z,101630.19
2018-09-14T11:38:43.191Z,101625.76
2018-09-14T11:41:14.099Z,101634.55
2018-09-14T11:43:45.712Z,101628.50
2018-09-14T11:48:54.906Z,101624.44
2018-09-14T11:51:34.352Z,101619.52
2018-09-14T11:54:09.711Z,101613.06
2018-09-14T11:56:46.637Z,101607.99
2018-09-14T11:59:17.423Z,101609.06
2018-09-14T12:01:53.756Z,101608.27
2018-09-14T12:04:24.091Z,101601.38
2018-09-14T12:06:58.566Z,101604.20
2018-09-14T12:09:28.347Z,101602.07
2018-09-14T12:12:02.525Z,101605.59
2018-09-14T12:14:37.067Z,101595.38
2018-09-14T12:17:10.782Z,101595.56
2018-09-14T12:19:46.741Z,101600.52
2018-09-14T12:22:20.114Z,101589.13
2018-09-14T12:24:53.726Z,101584.17
2018-09-14T12:27:26.274Z,101578.87
2018-09-14T12:32:47.584Z,101572.20
2018-09-14T12:35:25.169Z,101567.14
2018-09-14T12:37:54.959Z,101574.45
2018-09-14T12:40:28.024Z,101572.52
2018-09-14T12:43:01.000Z,101572.52
2018-09-14T12:45:39.587Z,101574.11
2018-09-14T12:48:12.349Z,101573.63
2018-09-14T12:50:44.313Z,101563.20
2018-09-14T12:53:16.098Z,101566.27
2018-09-14T12:55:47.345Z,101558.22
2018-09-14T12:58:19.733Z,101522.95
2018-09-14T13:00:50.396Z,101556.66
2018-09-14T13:03:25.066Z,101556.88
2018-09-14T13:05:54.952Z,101554.52
2018-09-14T13:08:24.817Z,101553.73
2018-09-14T13:10:54.665Z,101544.69
2018-09-14T13:13:26.248Z,101555.66
2018-09-14T13:15:55.996Z,101551.61
2018-09-14T13:18:26.866Z,101541.10
2018-09-14T13:20:56.388Z,101543.73
2018-09-14T13:23:35.902Z,101538.36
2018-09-14T13:26:06.442Z,101533.13
2018-09-14T13:28:40.086Z,101533.10
2018-09-14T13:31:12.176Z,101525.21
2018-09-14T13:33:47.552Z,101531.86
2018-09-14T13:36:17.037Z,101531.63
2018-09-14T13:38:49.616Z,101531.38
2018-09-14T13:41:19.644Z,101525.36
2018-09-14T13:44:06.808Z,101527.22
2018-09-14T13:46:44.669Z,101523.78
2018-09-14T13:49:14.710Z,101531.98
2018-09-14T13:51:54.832Z,101531.83
2018-09-14T13:54:25.309Z,101525.98
2018-09-14T13:56:55.491Z,101529.50
2018-09-14T13:59:28.713Z,101531.23
2018-09-14T14:01:59.213Z,101524.92
2018-09-14T14:04:29.536Z,101528.41
2018-09-14T14:07:03.264Z,101533.42
2018-09-14T14:09:32.809Z,101530.80
2018-09-14T14:12:02.629Z,101523.48
2018-09-14T14:14:40.515Z,101518.55
2018-09-14T14:17:11.330Z,101514.14
2018-09-14T14:19:45.015Z,101509.01
2018-09-14T14:25:05.601Z,101516.55
2018-09-14T14:27:36.150Z,101506.98
2018-09-14T14:30:09.447Z,101511.49
2018-09-14T14:32:39.590Z,101519.72
2018-09-14T14:35:10.782Z,101513.38
2018-09-14T14:37:44.885Z,101509.62
2018-09-14T14:40:17.422Z,101510.17
2018-09-14T14:42:47.923Z,101504.34
2018-09-14T14:45:17.507Z,101512.19
2018-09-14T14:47:51.098Z,101510.57
2018-09-14T14:50:24.726Z,101512.58
2018-09-14T14:53:25.988Z,101508.48
2018-09-14T14:55:57.107Z,101509.21
2018-09-14T14:58:27.191Z,101425.66
2018-09-14T15:01:01.208Z,101511.81
2018-09-14T15:03:32.025Z,101519.70
2018-09-14T15:06:05.308Z,101507.33
2018-09-14T15:08:36.140Z,101510.03
2018-09-14T15:11:07.896Z,101506.56
2018-09-14T15:13:46.168Z,101516.45
2018-09-14T15:16:17.825Z,101513.71
2018-09-14T15:18:48.298Z,101505.20
2018-09-14T15:21:21.594Z,101505.92
2018-09-14T15:23:56.398Z,101506.31
2018-09-14T15:26:28.666Z,101504.36
2018-09-14T15:29:02.354Z,101503.02
2018-09-14T15:31:34.192Z,101506.96
2018-09-14T15:34:06.085Z,101504.91
2018-09-14T15:36:39.536Z,101508.09
2018-09-14T15:39:15.061Z,101504.95
2018-09-14T15:41:44.581Z,101505.70
2018-09-14T15:44:14.088Z,101503.52
2018-09-14T15:46:44.216Z,101503.64
2018-09-14T15:49:17.840Z,101497.97
2018-09-14T15:51:48.695Z,101466.06
2018-09-14T15:54:44.974Z,101503.75
2018-09-14T15:57:14.740Z,101513.70
2018-09-14T15:59:47.733Z,101510.80
2018-09-14T16:02:57.433Z,101518.43
2018-09-14T16:05:29.126Z,101519.50
2018-09-14T16:07:59.520Z,101520.42
2018-09-14T16:10:36.453Z,101521.52
2018-09-14T16:13:05.986Z,101514.73
2018-09-14T16:15:35.727Z,101525.98
2018-09-14T16:18:06.502Z,101515.50
2018-09-14T16:20:35.971Z,101518.36
2018-09-14T16:23:06.560Z,101513.77
2018-09-14T16:25:37.154Z,101515.57
2018-09-14T16:28:06.903Z,101513.62
2018-09-14T16:30:37.869Z,101509.55
2018-09-14T16:33:07.346Z,101500.64
2018-09-14T16:35:40.307Z,101519.45
2018-09-14T16:38:10.979Z,101515.58
2018-09-14T16:40:45.388Z,101518.98
2018-09-14T16:43:18.242Z,101511.02
2018-09-14T16:45:51.159Z,101516.67
2018-09-14T16:48:23.307Z,101521.37
2018-09-14T16:50:54.974Z,101515.55
2018-09-14T16:53:24.636Z,101519.47
2018-09-14T16:56:01.729Z,101516.22
2018-09-14T16:58:32.368Z,101514.91
2018-09-14T17:01:06.714Z,101516.42
2018-09-14T17:03:38.671Z,101512.15
2018-09-14T17:06:14.656Z,101512.45
2018-09-14T17:08:45.672Z,101504.87
2018-09-14T17:11:18.329Z,101503.58
2018-09-14T17:13:51.048Z,101505.89
2018-09-14T17:16:42.418Z,101508.27
2018-09-14T17:19:19.918Z,101510.47
2018-09-14T17:21:51.609Z,101514.38
2018-09-14T17:24:25.510Z,101521.34
2018-09-14T17:26:59.007Z,101518.86
2018-09-14T17:29:35.406Z,101522.65
2018-09-14T17:32:08.896Z,101531.56
2018-09-14T17:34:44.467Z,101528.41
2018-09-14T17:37:23.437Z,101529.44
2018-09-14T17:39:54.460Z,101526.36
2018-09-14T17:42:28.479Z,101523.86
2018-09-14T17:45:10.308Z,101523.70
2018-09-14T17:47:43.096Z,101522.52
2018-09-14T17:53:20.280Z,101525.80
2018-09-14T17:55:50.279Z,101524.67
2018-09-14T17:58:21.807Z,101527.72
2018-09-14T18:00:59.889Z,101527.72
2018-09-14T18:03:29.985Z,101521.33
2018-09-14T18:06:13.873Z,101525.56
2018-09-14T18:08:46.842Z,101524.59
2018-09-14T18:11:21.474Z,101526.59
2018-09-14T18:13:55.130Z,101525.56
2018-09-14T18:16:48.589Z,101531.95
2018-09-14T18:19:21.435Z,101533.96
2018-09-14T18:21:51.790Z,101530.45
2018-09-14T18:24:32.161Z,101536.27
2018-09-14T18:27:04.737Z,101540.50
2018-09-14T18:29:36.410Z,101541.86
2018-09-14T18:32:11.287Z,101544.48
2018-09-14T18:34:43.200Z,101458.66
2018-09-14T18:37:15.771Z,101544.41
2018-09-14T18:39:47.217Z,101547.75
2018-09-14T18:44:55.189Z,101544.83
2018-09-14T18:47:26.462Z,101543.31
2018-09-14T18:50:00.638Z,101544.96
2018-09-14T18:52:33.811Z,101547.12
2018-09-14T18:55:07.792Z,101544.12
2018-09-14T18:57:46.567Z,101550.70
2018-09-14T19:00:22.670Z,101552.23
2018-09-14T19:02:54.605Z,101554.77
2018-09-14T19:05:30.893Z,101559.63
2018-09-14T19:08:02.502Z,101566.27
2018-09-14T19:10:39.475Z,101561.02
2018-09-14T19:13:11.679Z,101571.37
2018-09-14T19:15:43.498Z,101572.25
2018-09-14T19:18:41.289Z,101568.36
2018-09-14T19:21:11.196Z,101572.86
2018-09-14T19:23:44.482Z,101567.31
2018-09-14T19:26:18.719Z,101576.41
2018-09-14T19:28:49.685Z,101573.73
2018-09-14T19:31:21.693Z,101570.02
2018-09-14T19:34:00.852Z,101572.86
2018-09-14T19:36:37.395Z,101571.50
2018-09-14T19:39:18.170Z,101568.77
2018-09-14T19:42:01.559Z,101577.38
2018-09-14T19:44:32.557Z,101587.53
2018-09-14T19:47:03.026Z,101573.83
2018-09-14T19:49:34.000Z,101571.41
2018-09-14T19:52:04.598Z,101571.94
2018-09-14T19:54:37.231Z,101574.31
2018-09-14T19:57:09.303Z,101574.17
2018-09-14T19:59:49.796Z,101581.95
2018-09-14T20:02:25.370Z,101580.31
2018-09-14T20:05:03.449Z,101584.51
2018-09-14T20:07:35.941Z,101580.14
2018-09-14T20:10:06.215Z,101585.23
2018-09-14T20:12:38.861Z,101584.59
2018-09-14T20:15:15.545Z,101586.05
2018-09-14T20:17:50.753Z,101593.69
2018-09-14T20:20:22.555Z,101594.53
2018-09-14T20:22:54.158Z,101591.70
2018-09-14T20:25:24.915Z,101587.48
2018-09-14T20:27:56.495Z,101592.39
2018-09-14T20:33:20.922Z,101592.41
2018-09-14T20:35:53.995Z,101590.05
2018-09-14T20:38:24.745Z,101594.44
2018-09-14T20:40:58.563Z,101593.46
2018-09-14T20:43:30.002Z,101595.84
2018-09-14T20:46:03.364Z,101605.80
2018-09-14T20:48:41.464Z,101609.52
2018-09-14T20:51:12.401Z,101604.97
2018-09-14T20:53:44.722Z,101608.85
2018-09-14T20:56:15.141Z,101607.12
2018-09-14T20:58:44.764Z,101614.70
2018-09-14T21:01:14.473Z,101609.78
2018-09-14T21:03:45.495Z,101619.29
2018-09-14T21:06:19.008Z,101572.58
2018-09-14T21:08:52.570Z,101623.48
2018-09-14T21:11:28.444Z,101624.36
2018-09-14T21:14:01.843Z,101625.88
2018-09-14T21:16:32.156Z,101625.88
2018-09-14T21:19:04.221Z,101623.00
2018-09-14T21:21:34.326Z,101621.31
2018-09-14T21:24:05.226Z,101621.67
2018-09-14T21:26:36.485Z,101625.23
2018-09-14T21:29:09.944Z,101625.91
2018-09-14T21:31:47.275Z,101631.13
2018-09-14T21:34:24.663Z,101630.46
2018-09-14T21:37:01.768Z,101639.61
2018-09-14T21:39:34.629Z,101643.80
2018-09-14T21:42:05.589Z,101646.34
2018-09-14T21:44:37.568Z,101647.37
2018-09-14T21:47:12.672Z,101655.64
2018-09-14T21:49:44.123Z,101653.97
2018-09-14T21:52:13.888Z,101654.66
2018-09-14T21:54:54.257Z,101655.48
2018-09-14T21:57:23.821Z,101646.72
2018-09-14T21:59:53.922Z,101652.97
2018-09-14T22:02:27.190Z,101658.02
2018-09-14T22:04:57.388Z,101658.52
2018-09-14T22:07:26.937Z,101665.80
2018-09-14T22:09:56.889Z,101662.41
2018-09-14T22:15:09.420Z,101661.56
2018-09-14T22:17:41.390Z,101660.75
2018-09-14T22:20:13.317Z,101659.56
2018-09-14T22:22:44.632Z,101658.03
2018-09-14T22:25:16.216Z,101665.45
2018-09-14T22:27:47.741Z,101658.89
2018-09-14T22:30:20.227Z,101662.94
2018-09-14T22:32:50.480Z,101659.20
2018-09-14T22:35:22.841Z,101661.75
2018-09-14T22:37:52.493Z,101657.03
2018-09-14T22:40:22.831Z,101655.66
2018-09-14T22:42:56.721Z,101663.94
2018-09-14T22:45:26.277Z,101651.97
2018-09-14T22:47:57.088Z,101657.37
2018-09-14T22:50:27.340Z,101656.70
2018-09-14T22:52:56.853Z,101643.53
2018-09-14T22:55:27.424Z,101644.88
2018-09-14T22:57:58.475Z,101646.41
2018-09-14T23:03:20.463Z,101653.64
2018-09-14T23:08:32.159Z,101652.64
2018-09-14T23:11:11.341Z,101653.83
2018-09-14T23:13:44.966Z,101651.28
2018-09-14T23:16:15.150Z,101654.48
2018-09-14T23:18:46.446Z,101651.81
2018-09-14T23:21:17.680Z,101645.73
2018-09-14T23:23:47.417Z,101650.27
2018-09-14T23:26:19.406Z,101651.41
2018-09-14T23:28:49.075Z,101662.57
2018-09-14T23:31:19.353Z,101671.86
2018-09-14T23:33:50.867Z,101672.55
2018-09-14T23:36:20.332Z,101672.14
2018-09-14T23:38:50.232Z,101674.65
2018-09-14T23:41:20.464Z,101676.65
2018-09-14T23:43:51.607Z,101677.80
2018-09-14T23:46:21.822Z,101683.39
2018-09-14T23:48:52.480Z,101689.08
2018-09-14T23:51:21.786Z,101685.23
2018-09-14T23:53:53.211Z,101682.53
2018-09-14T23:56:22.802Z,101685.88
2018-09-14T23:58:55.796Z,101683.97
